Aérodrome :
LOGIN :

S'inscrire | Disclaimer

   EN    FR    IT 

 










Légende :    VFR   VFR Marginal   IFR   IFR Intensif   IFR Très Intensif
Visi : 
Plafond : 
>= 8 km
>= 3000ft
5 à 8 km
1000 à 3000 ft
1500m à 5 km
500 à 1000 ft
800 à 1500m
200 à 500 ft
< 800m
< 200 ft
Symboles :   Orages  Brouillard  Fortes neiges  Fortes précipitations  Vent > 20 kt
SIGMETs :   Divers  Orages  Givrage  Turbulence  Onde Orograph.  Cendres Volcan.






- Altitude de l'aérodrome : 13 ft
- Code IATA : GOA


LIMJ - Genoa Cristoforo Colombo

DERNIER METAR :
  • 221250Z VRB02KT 9999 -RA FEW020 BKN030 11/10 Q1010

METARs EXPIRÉS :
  • 221220Z 02006KT 350V060 9999 FEW020 BKN030 12/09 Q1011
  • 221150Z VRB01KT 9999 SCT015 BKN025 12/10 Q1011
  • 221120Z 36003KT 320V050 9999 -RA SCT020 BKN030 11/10 Q1011
  • 221050Z 07007KT 9999 -RA VCSH SCT020 BKN030 11/09 Q1012
  • 221020Z 04003KT 010V070 9999 VCSH SCT020 BKN030 12/09 Q1012

TAF TAF LIMJ
Valide du 22 à 12h jusqu'au 23 à 12h UTC


221100Z 2212/2312 04006KT 7000 RA BKN025 BKN060
BECMG 2218/2220 13015KT
TEMPO 2303/2312 3000 TSRA BKN010CB OVC030



MET'MAP, la Météo Aéronautique d'un coup d'oeil ! - Copyright ORBIFLY Décembre 2007 - Disclaimer

ORBIFLY MET'MAP TEAM :

Programmation & Développement : Alexandra Zaïnal
Conception & Développement : Baudouin d'Aumeries
Co-Programmation & Développement : Marc-Olivier Méhu
Soutien technique & logistique : Manuel Goepfert

Contact : metmap@orbifly.com




SOURCES & CREDITS :

   NOAA